ADDS METAR Data INFO
IDs: Format: Raw Decoded Include TAF

Data at: 0212 UTC 17 Aug 2018

PABV 170156Z AUTO VRB03KT 10SM OVC070 16/07 A3000 RMK AO2 SLP166 T01560072 $
PABV 170056Z AUTO 35004KT 10SM OVC075 15/07 A3000 RMK AO2 SLP166 T01500067 $
PABV 162356Z AUTO 30003KT 10SM OVC070 14/08 A3000 RMK AO2 SLP168 T01390083 10144 20111 57003 $
PABV 162256Z AUTO 34004KT 10SM SCT070 BKN110 14/08 A3000 RMK AO2 SLP169 T01390078 $
PABV 162156Z AUTO 02003KT 10SM FEW036 OVC060 13/08 A3001 RMK AO2 SLP170 T01330083 $
PABV 162056Z AUTO 36004KT 10SM BKN065 OVC080 12/09 A3001 RMK AO2 SLP171 T01220094 51003 $
PABV 161956Z AUTO VRB03KT 10SM OVC070 12/09 A3001 RMK AO2 SLP170 T01220094 $
PABV 161856Z AUTO 00000KT 10SM OVC065 11/09 A3001 RMK AO2 SLP170 T01110094 $
PABV 161756Z AUTO 04003KT 10SM OVC060 11/09 A3000 RMK AO2 SLP168 60001 T01110089 10111 20100 51004 $
PABV 161656Z AUTO 04003KT 10SM OVC090 11/09 A3000 RMK AO2 SLP167 T01060094 $
PABV 161556Z AUTO 06004KT 10SM FEW049 OVC090 11/09 A3000 RMK AO2 RAE25 SLP166 P0000 T01060094 $
PABV 161456Z AUTO 00000KT 10SM -RA OVC070 11/09 A2999 RMK AO2 SLP164 P0001 60001 T01060094 52003 $
PABV 161356Z AUTO 10003KT 10SM -RA FEW019 SCT065 OVC085 11/09 A2999 RMK AO2 SLP163 P0000 T01060089 $
PABV 161312Z AUTO 11003KT 10SM -RA SCT019 OVC060 11/08 A2999 RMK AO2 P0000 $
PABV 161256Z AUTO 08003KT 10SM -RA OVC019 11/08 A2999 RMK AO2 RAB03 SLP163 P0000 T01060083 $
PABV 161232Z AUTO 07005KT 10SM -RA BKN021 OVC070 11/08 A2999 RMK AO2 RAB03 P0000 $
PABV 161156Z AUTO 07005KT 10SM OVC070 11/08 A2998 RMK AO2 SLP161 60000 70019 T01110083 10133 20111 51007 $
PABV 161056Z AUTO 07003KT 10SM OVC070 12/09 A2997 RMK AO2 SLP159 T01170089 $
PABV 160956Z AUTO 00000KT 10SM FEW016 OVC070 12/09 A2997 RMK AO2 SLP157 T01170094 $
PABV 160948Z AUTO 09003KT 10SM SCT014 OVC070 12/09 A2997 RMK AO2 $
PABV 160941Z AUTO 05003KT 10SM BKN016 OVC070 12/09 A2997 RMK AO2 $
PABV 160925Z AUTO 35004KT 10SM BKN014 OVC070 12/09 A2997 RMK AO2 $
PABV 160856Z AUTO 00000KT 10SM OVC070 12/11 A2996 RMK AO2 SLP154 60000 T01170106 53007 $
PABV 160756Z AUTO 00000KT 10SM FEW035 OVC070 12/11 A2995 RMK AO2 RAE08 SLP150 P0000 T01220111 401560094 $
PABV 160656Z AUTO 00000KT 10SM -RA FEW039 OVC075 13/11 A2995 RMK AO2 RAB21 SLP150 P0000 T01280106 $
PABV 160556Z AUTO 00000KT 10SM OVC060 13/11 A2994 RMK AO2 SLP147 T01330111 10156 20128 53004 $
PABV 160456Z AUTO 03003KT 10SM OVC065 15/12 A2993 RMK AO2 SLP144 T01500117 $
PABV 160356Z AUTO 00000KT 10SM FEW050 OVC075 16/11 A2993 RMK AO2 SLP142 T01560106 $
PABV 160256Z AUTO 03004KT 10SM BKN050 BKN075 OVC090 16/11 A2993 RMK AO2 SLP143 T01560111 56009 $
PABV 160156Z AUTO 05003KT 10SM SCT070 BKN100 15/10 A2993 RMK AO2 SLP143 T01500100 $
PABV 160056Z AUTO 29003KT 10SM OVC065 14/09 A2994 RMK AO2 SLP148 T01440094 $
PABV 152356Z AUTO 00000KT 10SM OVC060 13/09 A2996 RMK AO2 SLP152 60000 T01330094 10139 20100 58001 $
PABV 152256Z AUTO 00000KT 10SM BKN050 OVC060 14/09 A2996 RMK AO2 SLP154 T01390094 $
PABV 152156Z AUTO 00000KT 10SM OVC065 13/09 A2996 RMK AO2 SLP154 T01330094 $
PABV 152056Z AUTO 04003KT 10SM OVC060 12/11 A2996 RMK AO2 RAE09B30E45 SLP153 P0000 60000 T01220106 51006 $
PABV 151956Z AUTO 00000KT 10SM -RA OVC070 12/11 A2996 RMK AO2 SLP152 P0000 T01170106 $
PABV 151856Z AUTO 04003KT 10SM -RA OVC065 11/10 A2995 RMK AO2 RAE07B44 SLP151 P0000 T01060100 $
PABV 151756Z AUTO 00000KT 10SM -RA BKN046 OVC060 10/09 A2994 RMK AO2 SLP147 P0002 60019 T01000094 10111 20094 53007 $
PABV 151656Z AUTO 00000KT 10SM -RA OVC070 11/10 A2993 RMK AO2 SLP143 P0002 T01060100 $
PABV 151556Z AUTO 05003KT 10SM -RA OVC065 10/10 A2992 RMK AO2 SLP141 P0003 T01000100 $
PABV 151456Z AUTO 05003KT 10SM RA OVC060 10/10 A2992 RMK AO2 SLP140 P0009 60012 T01000100 53007 $